KAST/AST METAR and TAF weather

Enter ICAO airport designator
Station Type Date Time Source
KAST METAR 2019/06/26 09:55 UTC NOAA

KAST 260955Z AUTO 11004KT 10SM BKN065 09/07 A2992 RMK AO2 SLP131 T00890072


Station Type Date Time Source
KAST Decoded METAR 2019/06/26 09:55 UTC NOAA

PORT OF ASTORIA AIRPORT, OR, United States (KAST) 46-09N 123-53W 3M
Jun 26, 2019 - 05:55 AM EDT / 2019.06.26 0955 UTC
Wind: from the ESE (110 degrees) at 5 MPH (4 KT):0
Visibility: 10 mile(s):0
Sky conditions: mostly cloudy
Temperature: 48.0 F (8.9 C)
Dew Point: 45.0 F (7.2 C)
Relative Humidity: 89%
Pressure (altimeter): 29.92 in. Hg (1013 hPa)
ob: KAST 260955Z AUTO 11004KT 10SM BKN065 09/07 A2992 RMK AO2 SLP131 T00890072
cycle: 10

Station Type Date Time Source
KAST TAF 2019/06/26 06:22 UTC NOAA

TAF KAST 260520Z 2606/2706 24004KT P6SM SCT060 BKN180
FM260800 00000KT P6SM BKN070
FM262000 29005KT P6SM -SHRA BKN035 OVC050
FM270300 24005KT P6SM BKN070

Example: see airport list